createdAt,value
2019-05-30T00:00:14.870Z,10.2
2019-05-30T00:15:04.900Z,10.4
2019-05-30T00:30:03.534Z,10.2
2019-05-30T00:45:10.988Z,10.2
2019-05-30T01:00:03.030Z,10.2
2019-05-30T01:15:03.338Z,10.2
2019-05-30T01:30:03.682Z,10.2
2019-05-30T01:45:02.662Z,10.1
2019-05-30T02:00:07.647Z,10.1
2019-05-30T02:15:03.613Z,10.1
2019-05-30T02:30:05.577Z,9.9
2019-05-30T02:45:03.551Z,9.8
2019-05-30T03:00:05.177Z,9.5
2019-05-30T03:15:04.709Z,9.4
2019-05-30T03:30:04.991Z,9.2
2019-05-30T03:45:04.144Z,9.2
2019-05-30T04:00:02.429Z,9.2
2019-05-30T04:15:03.262Z,9.3
2019-05-30T04:30:03.053Z,9.4
2019-05-30T04:45:03.475Z,9.6
2019-05-30T05:00:02.735Z,9.7
2019-05-30T05:15:03.063Z,9.8
2019-05-30T05:30:03.358Z,9.9
2019-05-30T05:45:02.657Z,9.9
2019-05-30T06:00:02.979Z,10.2
2019-05-30T06:15:03.430Z,10.7
2019-05-30T06:30:02.815Z,10.7
2019-05-30T06:45:03.088Z,11.2
2019-05-30T07:00:03.421Z,11.7
2019-05-30T07:15:02.640Z,12.1
2019-05-30T07:30:03.110Z,12.4
2019-05-30T07:45:03.422Z,12.7
2019-05-30T08:00:02.665Z,13.8
2019-05-30T08:15:02.924Z,15.1
2019-05-30T08:30:03.394Z,14.6
2019-05-30T08:48:52.878Z,13.6
2019-05-30T09:00:03.446Z,15.1
2019-05-30T09:15:02.992Z,15.1
2019-05-30T09:30:03.247Z,15.1
2019-05-30T09:45:03.416Z,15.1
2019-05-30T10:00:02.708Z,14.8
2019-05-30T10:15:02.946Z,15.2
2019-05-30T10:30:03.393Z,16
2019-05-30T10:45:02.742Z,18.4
2019-05-30T11:00:03.085Z,18.4
2019-05-30T11:15:02.806Z,18.9
2019-05-30T11:30:02.986Z,16.9
2019-05-30T11:45:03.321Z,16.8
2019-05-30T12:00:02.583Z,17.6
2019-05-30T12:15:02.949Z,18.8
2019-05-30T12:30:03.370Z,19.4
2019-05-30T12:45:06.719Z,20.8
2019-05-30T13:00:07.333Z,21.3
2019-05-30T13:15:03.809Z,20.1
2019-05-30T13:30:04.165Z,21
2019-05-30T13:45:04.122Z,19
2019-05-30T14:00:03.790Z,19.2
2019-05-30T14:15:06.556Z,18.3
2019-05-30T14:30:03.204Z,18.8
2019-05-30T14:45:04.534Z,17.7
2019-05-30T15:00:02.903Z,17.6
2019-05-30T15:15:03.106Z,18.7
2019-05-30T15:30:02.585Z,17.3
2019-05-30T15:45:03.045Z,17.8
2019-05-30T16:00:02.502Z,17.6
2019-05-30T16:15:02.821Z,17.4
2019-05-30T16:30:03.497Z,18.1
2019-05-30T16:45:02.943Z,17.4
2019-05-30T17:00:03.079Z,16.8
2019-05-30T17:15:03.382Z,16.9
2019-05-30T17:30:03.069Z,16.8
2019-05-30T17:45:03.313Z,16.4
2019-05-30T18:00:02.592Z,16.1
2019-05-30T18:15:02.894Z,16.2
2019-05-30T18:30:02.579Z,15.8
2019-05-30T18:45:02.897Z,14.3
2019-05-30T19:00:03.646Z,13.6
2019-05-30T19:15:03.505Z,13
2019-05-30T19:30:02.736Z,12.6
2019-05-30T19:45:03.024Z,12.3
2019-05-30T20:00:03.302Z,11.8
2019-05-30T20:15:02.582Z,11.7
2019-05-30T20:30:02.979Z,11.6
2019-05-30T20:45:05.674Z,11.6
2019-05-30T21:00:02.650Z,11.1
2019-05-30T21:15:02.957Z,10.9
2019-05-30T21:30:03.268Z,10.9
2019-05-30T21:45:02.612Z,10.9
2019-05-30T22:00:02.970Z,10.5
2019-05-30T22:15:03.288Z,10.2
2019-05-30T22:30:02.658Z,10.2
2019-05-30T22:45:02.974Z,10.2
2019-05-30T23:00:02.583Z,10.2
2019-05-30T23:15:02.894Z,10.1
2019-05-30T23:30:03.292Z,10.1
2019-05-30T23:45:02.659Z,10
